Time;durP1;ratioP1;P1;durP2;ratioP2;P2;SDS_P1;SDS_P2;PMS_P1;PMS_P2;Temp;Humidity;BMP_temperature;BMP_pressure;BME280_temperature;BME280_humidity;BME280_pressure;Samples;Min_cycle;Max_cycle;Signal;HPM_P1;HPM_P2
2023/01/18 00:10:10;;;;;;;29.40;15.15;;;;;;;0.05;66.43;97618.31;30852885;28;96823;-68
2023/01/18 00:25:11;;;;;;;28.40;15.60;;;;;;;0.08;66.41;97620.59;30852335;28;97096;-68
2023/01/18 00:40:11;;;;;;;28.95;13.27;;;;;;;0.19;67.12;97612.38;30851632;28;97367;-68
2023/01/18 00:55:14;;;;;;;30.52;15.23;;;;;;;0.35;67.14;97618.59;30865933;28;97227;-68
2023/01/18 01:10:14;;;;;;;25.52;14.55;;;;;;;0.31;67.15;97600.56;30868817;28;97367;-69
2023/01/18 01:40:34;;;;;;;23.95;12.07;;;;;;;0.07;67.89;97577.91;30865889;28;96989;-66
2023/01/18 01:55:37;;;;;;;26.05;12.52;;;;;;;-0.01;68.30;97578.72;30863256;28;96602;-66
2023/01/18 02:10:38;;;;;;;27.33;14.43;;;;;;;0.15;68.44;97561.34;30862738;28;97218;-67
2023/01/18 02:26:00;;;;;;;30.98;14.98;;;;;;;0.14;68.71;97563.16;30861504;28;97186;-67
2023/01/18 02:56:52;;;;;;;28.98;15.23;;;;;;;0.59;69.44;97579.19;30859155;28;96947;-67
2023/01/18 03:12:07;;;;;;;31.85;15.85;;;;;;;0.50;69.42;97574.97;30857176;28;97462;-67
2023/01/18 03:42:34;;;;;;;33.97;16.60;;;;;;;1.06;69.38;97585.34;30854011;28;96951;-67
2023/01/18 03:57:45;;;;;;;33.65;16.55;;;;;;;1.16;69.50;97577.22;30852796;28;97391;-67
2023/01/18 04:12:46;;;;;;;30.58;17.50;;;;;;;1.22;69.57;97542.44;30852057;28;96671;-68
2023/01/18 04:27:46;;;;;;;31.17;18.00;;;;;;;1.00;69.61;97525.75;30864041;28;96751;-68
2023/01/18 04:42:53;;;;;;;38.40;18.23;;;;;;;1.06;70.19;97564.34;30869026;28;96710;-67
2023/01/18 04:57:58;;;;;;;39.53;17.75;;;;;;;1.15;70.37;97573.00;30867353;28;96829;-67
2023/01/18 05:12:58;;;;;;;;;;;;;;;1.19;70.60;97600.50;30866320;28;96624;-68
2023/01/18 05:27:59;;;;;;;33.92;19.95;;;;;;;1.18;71.20;97580.50;30862319;28;96852;-63
2023/01/18 05:42:59;;;;;;;33.63;18.08;;;;;;;1.21;71.40;97550.50;30858550;28;96627;-63
2023/01/18 05:57:59;;;;;;;34.00;18.45;;;;;;;1.13;71.73;97565.28;30884099;28;96667;-64
2023/01/18 06:13:00;;;;;;;32.45;18.48;;;;;;;1.16;72.39;97558.88;30903560;28;97720;-61
2023/01/18 06:28:01;;;;;;;34.45;18.65;;;;;;;1.06;72.45;97566.97;30854349;28;96886;-62
2023/01/18 06:43:01;;;;;;;28.45;16.05;;;;;;;1.11;73.32;97550.75;30863704;28;97331;-64
2023/01/18 06:58:02;;;;;;;29.63;15.75;;;;;;;1.11;73.42;97529.75;30890439;28;97815;-63
2023/01/18 07:13:02;;;;;;;34.58;14.65;;;;;;;1.15;74.11;97546.78;30870365;28;97782;-62
2023/01/18 07:28:03;;;;;;;20.67;11.13;;;;;;;1.30;73.82;97560.75;30901139;28;97123;-63
2023/01/18 07:43:04;;;;;;;22.40;10.48;;;;;;;1.46;74.70;97556.34;30967531;28;97112;-63
2023/01/18 07:58:04;;;;;;;17.55;9.90;;;;;;;1.67;74.93;97571.44;30887213;28;97931;-62
2023/01/18 08:13:07;;;;;;;16.77;10.00;;;;;;;1.75;74.47;97568.75;30869871;28;96697;-62
2023/01/18 08:28:09;;;;;;;17.58;9.80;;;;;;;1.80;74.81;97597.06;30865437;28;97632;-62
2023/01/18 08:43:10;;;;;;;23.08;11.45;;;;;;;1.88;74.98;97607.50;30865471;28;97281;-64
2023/01/18 08:58:11;;;;;;;19.80;10.75;;;;;;;2.01;75.10;97604.28;30862643;28;96858;-63
2023/01/18 09:13:11;;;;;;;22.35;11.90;;;;;;;2.13;74.84;97630.91;30885640;28;97427;-63
2023/01/18 09:28:12;;;;;;;26.30;13.52;;;;;;;2.15;75.39;97655.19;30892207;28;96962;-62
2023/01/18 09:43:17;;;;;;;20.25;12.20;;;;;;;2.37;75.05;97661.38;30861179;28;96966;-63
2023/01/18 09:58:26;;;;;;;22.88;11.77;;;;;;;2.42;75.13;97653.78;30865753;28;96647;-64
2023/01/18 10:14:02;;;;;;;19.23;11.80;;;;;;;2.66;75.15;97652.66;30867852;28;97432;-61
2023/01/18 10:29:15;;;;;;;21.88;11.73;;;;;;;2.80;75.41;97660.75;30892978;28;97886;-63
2023/01/18 10:44:16;;;;;;;20.10;13.30;;;;;;;2.86;75.09;97681.88;30875741;28;96777;-69
2023/01/18 10:59:28;;;;;;;20.00;11.13;;;;;;;2.96;74.98;97680.78;30912381;28;96925;-70
2023/01/18 11:14:30;;;;;;;25.92;12.80;;;;;;;2.96;74.85;97701.81;30939019;28;97587;-70
2023/01/18 11:29:39;;;;;;;17.48;10.93;;;;;;;2.95;74.65;97700.97;30902067;28;96939;-71
2023/01/18 11:44:47;;;;;;;25.52;13.75;;;;;;;2.96;74.88;97720.22;30874239;28;97006;-67
2023/01/18 11:59:47;;;;;;;27.98;15.63;;;;;;;3.03;74.53;97732.47;30926292;28;97338;-68
2023/01/18 12:15:25;;;;;;;21.20;13.15;;;;;;;3.06;74.79;97749.69;30967909;28;96964;-69
2023/01/18 12:30:38;;;;;;;26.20;14.95;;;;;;;2.99;74.78;97769.81;30868887;28;96722;-69
2023/01/18 12:45:41;;;;;;;24.17;14.00;;;;;;;2.94;74.57;97788.78;30858755;28;96693;-67
2023/01/18 13:00:52;;;;;;;21.70;14.00;;;;;;;2.97;74.65;97814.72;30864061;28;97575;-72
2023/01/18 13:16:08;;;;;;;20.33;11.73;;;;;;;2.98;74.43;97855.81;30760672;28;96913;-72
2023/01/18 13:31:09;;;;;;;17.38;10.43;;;;;;;2.81;74.62;97889.31;30739945;28;96680;-68
2023/01/18 13:46:12;;;;;;;17.48;10.32;;;;;;;2.71;74.70;97905.34;30769881;28;98363;-68
2023/01/18 14:01:21;;;;;;;19.38;11.77;;;;;;;2.75;75.54;97942.63;30854951;28;97013;-70
2023/01/18 14:16:28;;;;;;;23.85;12.00;;;;;;;2.69;74.67;97967.81;30857539;28;96659;-69
2023/01/18 14:31:32;;;;;;;20.48;13.52;;;;;;;2.65;74.80;98011.22;30855890;28;97515;-75
2023/01/18 14:46:33;;;;;;;26.70;12.10;;;;;;;2.61;75.57;98033.56;30857991;28;96850;-69
2023/01/18 15:01:38;;;;;;;23.85;13.82;;;;;;;2.66;75.53;98047.00;30856545;28;97747;-74
2023/01/18 15:16:39;;;;;;;28.23;16.33;;;;;;;2.67;75.53;98077.56;30845062;28;96922;-71
2023/01/18 15:31:48;;;;;;;27.13;13.65;;;;;;;2.67;75.49;98108.31;30844897;28;97044;-68
2023/01/18 15:46:49;;;;;;;24.02;13.77;;;;;;;2.62;75.69;98124.56;30849528;28;97153;-67
2023/01/18 16:02:24;;;;;;;28.88;16.50;;;;;;;2.53;75.35;98149.28;30850543;28;97010;-70
2023/01/18 16:17:26;;;;;;;;;;;;;;;2.57;75.55;98155.81;30956254;28;96690;-66
2023/01/18 16:32:35;;;;;;;42.30;21.15;;;;;;;2.33;75.87;98189.03;30992411;28;96616;-67
2023/01/18 16:47:35;;;;;;;46.67;20.17;;;;;;;2.15;76.19;98206.81;30990075;28;96565;-67
2023/01/18 17:02:35;;;;;;;50.95;23.05;;;;;;;2.01;76.82;98219.63;30987203;28;96703;-66
2023/01/18 17:17:36;;;;;;;45.70;21.52;;;;;;;1.74;77.27;98244.38;30986706;28;96841;-67
2023/01/18 17:32:36;;;;;;;47.45;22.13;;;;;;;1.74;77.25;98275.06;30984519;28;96693;-72
2023/01/18 17:47:37;;;;;;;45.22;21.45;;;;;;;1.84;77.62;98294.09;30983175;28;97462;-71
2023/01/18 18:02:39;;;;;;;46.60;21.25;;;;;;;1.78;77.77;98295.56;30982624;28;96708;-73
2023/01/18 18:17:39;;;;;;;45.75;24.20;;;;;;;1.82;77.76;98330.22;30814801;28;96683;-65
2023/01/18 18:32:40;;;;;;;56.35;27.48;;;;;;;1.83;78.00;98337.94;30728286;28;97446;-71
2023/01/18 18:47:40;;;;;;;56.35;28.27;;;;;;;1.76;77.55;98373.66;30725700;28;97643;-66
2023/01/18 19:02:40;;;;;;;59.53;27.63;;;;;;;1.58;77.81;98401.81;30723543;28;97157;-68
2023/01/18 19:17:42;;;;;;;52.83;27.33;;;;;;;1.61;78.25;98420.66;30787339;28;97977;-70
2023/01/18 19:32:50;;;;;;;55.80;26.00;;;;;;;1.54;78.51;98443.28;30854060;28;96967;-69
2023/01/18 19:47:51;;;;;;;54.70;26.27;;;;;;;1.47;78.90;98460.63;30953324;28;97129;-70
2023/01/18 20:02:52;;;;;;;48.30;26.85;;;;;;;1.28;78.92;98487.88;30997186;28;97101;-70
2023/01/18 20:17:52;;;;;;;51.83;26.63;;;;;;;1.16;79.22;98519.59;30966217;28;96732;-72
2023/01/18 20:32:53;;;;;;;52.40;26.58;;;;;;;1.30;79.26;98527.88;30709496;28;97842;-70
2023/01/18 20:47:54;;;;;;;58.92;29.38;;;;;;;1.28;79.28;98537.72;30747461;28;97264;-72
2023/01/18 21:02:55;;;;;;;52.92;25.70;;;;;;;1.36;79.82;98537.78;30744311;28;97620;-74
2023/01/18 21:17:55;;;;;;;47.72;24.23;;;;;;;1.58;80.00;98533.84;30744067;28;96475;-72
2023/01/18 21:32:56;;;;;;;44.58;21.23;;;;;;;1.66;79.41;98535.72;30744938;28;96675;-69
2023/01/18 21:47:58;;;;;;;37.40;18.90;;;;;;;1.81;79.78;98580.63;30744012;28;97689;-63
2023/01/18 22:02:58;;;;;;;38.90;19.77;;;;;;;1.75;79.33;98616.19;30742447;28;96626;-69
2023/01/18 22:17:59;;;;;;;36.53;18.13;;;;;;;1.79;79.48;98635.06;30738915;28;96658;-64
2023/01/18 22:32:59;;;;;;;42.08;19.77;;;;;;;1.67;78.83;98666.81;30739568;28;96710;-65
2023/01/18 22:47:59;;;;;;;47.40;21.42;;;;;;;1.39;79.15;98675.75;30739241;28;97048;-65
2023/01/18 23:03:00;;;;;;;62.95;28.45;;;;;;;1.18;78.80;98672.41;30737791;28;96810;-64
2023/01/18 23:18:00;;;;;;;47.63;23.33;;;;;;;1.03;79.56;98696.66;30856064;28;96609;-67
2023/01/18 23:33:01;;;;;;;44.20;23.23;;;;;;;0.86;79.69;98706.94;30856267;28;97028;-66
